createdAt,value
2023-03-18T01:09:48.830Z,13.10
2023-03-18T04:35:57.731Z,12.20
2023-03-18T04:41:37.358Z,12.20
2023-03-18T04:46:55.863Z,12.10
2023-03-18T04:52:19.812Z,12.10
2023-03-18T04:57:53.103Z,12.00
2023-03-18T05:03:37.428Z,11.90
2023-03-18T05:08:50.755Z,11.90
2023-03-18T05:14:05.717Z,11.90
2023-03-18T05:19:25.348Z,11.90
2023-03-18T05:24:32.796Z,11.90
2023-03-18T05:29:47.530Z,11.90
2023-03-18T05:35:04.895Z,11.80
2023-03-18T05:41:07.860Z,11.80
2023-03-18T05:46:04.275Z,11.80
2023-03-18T06:03:12.908Z,11.60
2023-03-18T06:08:15.275Z,11.50
2023-03-18T06:13:17.453Z,11.50
2023-03-18T06:18:19.250Z,11.40
2023-03-18T06:23:21.735Z,11.30
2023-03-18T06:28:23.553Z,11.40
2023-03-18T06:33:25.908Z,11.30
2023-03-18T06:38:28.829Z,11.20
2023-03-18T06:43:31.228Z,11.20
2023-03-18T06:48:33.026Z,11.20
2023-03-18T06:53:36.533Z,11.20
2023-03-18T06:58:38.557Z,11.10
2023-03-18T07:03:40.609Z,11.10
2023-03-18T07:08:42.588Z,11.10
2023-03-18T07:13:44.693Z,11.10
2023-03-18T07:18:46.762Z,11.20
2023-03-18T07:23:49.453Z,11.20
2023-03-18T07:28:51.965Z,11.20
2023-03-18T07:33:53.848Z,11.20
2023-03-18T07:38:56.764Z,11.30
2023-03-18T07:43:58.734Z,11.30
2023-03-18T07:49:01.145Z,11.30
2023-03-18T07:54:04.214Z,11.40
2023-03-18T07:59:06.250Z,11.40
2023-03-18T08:04:08.548Z,11.50
2023-03-18T08:09:10.724Z,11.60
2023-03-18T08:14:12.600Z,11.70
2023-03-18T08:19:14.391Z,11.90
2023-03-18T08:24:16.237Z,12.00
2023-03-18T08:29:18.193Z,12.10
2023-03-18T08:34:20.101Z,12.20
2023-03-18T08:39:22.680Z,12.30
2023-03-18T08:44:24.764Z,12.40
2023-03-18T08:49:26.648Z,12.50
2023-03-18T08:54:28.585Z,12.70
2023-03-18T08:59:30.409Z,12.80
2023-03-18T09:04:32.825Z,12.90
2023-03-18T09:09:43.554Z,13.10
2023-03-18T09:14:47.304Z,13.20
2023-03-18T09:19:49.253Z,13.40
2023-03-18T09:24:51.075Z,13.50
2023-03-18T09:29:52.986Z,13.60
2023-03-18T09:34:54.865Z,13.80
2023-03-18T09:39:56.647Z,14.00
2023-03-18T09:45:01.334Z,14.20
2023-03-18T09:50:21.683Z,14.40
2023-03-18T09:55:30.329Z,14.60
2023-03-18T10:00:37.725Z,14.80
2023-03-18T10:05:56.822Z,15.10
2023-03-18T10:11:02.405Z,15.20
2023-03-18T10:16:06.351Z,15.30
2023-03-18T10:21:17.072Z,15.50
2023-03-18T10:26:43.989Z,15.70
2023-03-18T10:32:11.904Z,15.80
2023-03-18T10:37:37.507Z,15.90
2023-03-18T10:42:40.465Z,16.00
2023-03-18T10:47:44.983Z,16.00
2023-03-18T10:52:56.010Z,16.00
2023-03-18T10:57:57.933Z,15.90
2023-03-18T11:03:00.655Z,15.90
2023-03-18T11:08:05.574Z,15.90
2023-03-18T11:13:07.483Z,15.80
2023-03-18T11:18:19.497Z,15.80
2023-03-18T11:23:48.978Z,15.70
2023-03-18T11:28:58.554Z,15.70
2023-03-18T11:34:00.699Z,15.70
2023-03-18T11:39:04.819Z,15.70
2023-03-18T11:44:08.322Z,15.70
2023-03-18T11:49:14.344Z,15.60
2023-03-18T11:54:47.805Z,15.60
2023-03-18T11:59:52.728Z,15.50
2023-03-18T12:05:13.992Z,15.40
2023-03-18T12:10:37.691Z,15.40
2023-03-18T12:15:48.603Z,15.30
2023-03-18T12:20:54.659Z,15.30
2023-03-18T12:26:06.704Z,15.20
2023-03-18T12:31:26.636Z,15.00
2023-03-18T12:36:34.255Z,14.90
2023-03-18T12:41:56.299Z,14.80
2023-03-18T12:47:08.024Z,14.80
2023-03-18T12:52:14.098Z,14.80
2023-03-18T12:57:33.118Z,14.80
2023-03-18T13:03:11.132Z,14.80
2023-03-18T13:08:13.047Z,14.90
2023-03-18T13:13:15.273Z,14.90
2023-03-18T13:18:52.930Z,15.00
2023-03-18T13:24:18.957Z,15.20
2023-03-18T13:30:02.637Z,15.50
2023-03-18T13:35:17.584Z,15.70
2023-03-18T13:40:53.945Z,16.10
2023-03-18T13:45:57.264Z,16.50
2023-03-18T13:51:00.312Z,17.30
2023-03-18T13:56:05.385Z,18.10
2023-03-18T14:01:32.923Z,18.60
2023-03-18T14:06:34.814Z,18.80
2023-03-18T14:11:38.149Z,19.40
2023-03-18T14:16:47.421Z,19.70
2023-03-18T14:21:53.908Z,19.80
2023-03-18T14:26:58.428Z,19.80
2023-03-18T14:32:02.547Z,19.80
2023-03-18T14:37:14.862Z,19.80
2023-03-18T14:42:28.777Z,20.30
2023-03-18T14:47:44.738Z,20.80
2023-03-18T14:52:55.398Z,21.10
2023-03-18T14:57:57.590Z,21.10
2023-03-18T15:03:03.273Z,21.20
2023-03-18T15:08:10.821Z,21.00
2023-03-18T15:13:14.906Z,21.00
2023-03-18T15:18:32.637Z,21.20
2023-03-18T15:23:45.672Z,21.30
2023-03-18T15:28:48.518Z,21.60
2023-03-18T15:34:16.134Z,21.80
2023-03-18T15:39:32.220Z,21.40
2023-03-18T15:44:37.640Z,20.90
2023-03-18T15:49:51.620Z,20.60
2023-03-18T15:54:53.613Z,20.70
2023-03-18T15:59:55.669Z,20.90
2023-03-18T16:05:16.199Z,21.00
2023-03-18T16:10:20.124Z,20.90
2023-03-18T16:15:24.124Z,20.50
2023-03-18T16:20:31.467Z,19.90
2023-03-18T16:25:33.709Z,19.50
2023-03-18T16:30:40.366Z,19.20
2023-03-18T16:35:43.768Z,18.80
2023-03-18T16:40:46.688Z,18.50
2023-03-18T16:45:51.776Z,18.30
2023-03-18T16:50:56.531Z,18.00
2023-03-18T16:56:04.403Z,17.70
2023-03-18T17:01:07.626Z,17.40
2023-03-18T17:06:09.896Z,17.20
2023-03-18T17:11:18.097Z,17.00
2023-03-18T17:16:20.308Z,16.80
2023-03-18T17:21:22.682Z,16.70
2023-03-18T17:26:25.172Z,16.60
2023-03-18T17:31:26.996Z,16.50
2023-03-18T17:36:28.854Z,16.40
2023-03-18T17:41:32.375Z,16.30
2023-03-18T17:46:34.586Z,16.20
2023-03-18T17:51:36.718Z,16.10
2023-03-18T17:56:38.966Z,16.00
2023-03-18T18:01:41.522Z,15.90
2023-03-18T18:06:47.318Z,15.90
2023-03-18T18:39:39.282Z,15.50
2023-03-18T18:45:01.491Z,15.40
2023-03-18T19:03:08.784Z,15.30
